createdAt,value
2023-01-07T00:01:17.054Z,101307.16
2023-01-07T00:03:44.882Z,101303.69
2023-01-07T00:06:17.700Z,101307.16
2023-01-07T00:08:46.218Z,101307.22
2023-01-07T00:11:20.063Z,101299.38
2023-01-07T00:13:51.329Z,101299.41
2023-01-07T00:16:20.416Z,101290.66
2023-01-07T00:18:47.771Z,101288.94
2023-01-07T00:21:16.544Z,101288.03
2023-01-07T00:23:44.382Z,101293.25
2023-01-07T00:26:13.994Z,101291.53
2023-01-07T00:28:43.600Z,101284.59
2023-01-07T00:31:25.381Z,101276.75
2023-01-07T00:33:55.691Z,101287.25
2023-01-07T00:36:28.049Z,101286.41
2023-01-07T00:39:00.118Z,101286.41
2023-01-07T00:41:27.793Z,101287.34
2023-01-07T00:43:56.132Z,101283.00
2023-01-07T00:46:23.352Z,101287.34
2023-01-07T00:48:50.619Z,101282.97
2023-01-07T00:53:59.948Z,101279.38
2023-01-07T00:56:27.136Z,101284.59
2023-01-07T00:58:54.340Z,101294.00
2023-01-07T01:01:21.646Z,101293.97
2023-01-07T01:03:48.939Z,101296.44
2023-01-07T01:06:16.717Z,101290.19
2023-01-07T01:08:45.321Z,101302.31
2023-01-07T01:11:13.988Z,101293.53
2023-01-07T01:13:41.300Z,101293.50
2023-01-07T01:16:10.569Z,101283.88
2023-01-07T01:18:37.844Z,101293.41
2023-01-07T01:21:11.491Z,101294.47
2023-01-07T01:23:39.040Z,101286.78
2023-01-07T01:26:08.164Z,101283.25
2023-01-07T01:28:35.661Z,101282.31
2023-01-07T01:31:03.233Z,101291.03
2023-01-07T01:33:30.422Z,101287.66
2023-01-07T01:35:57.897Z,101282.38
2023-01-07T01:38:25.064Z,101282.41
2023-01-07T01:40:52.281Z,101284.22
2023-01-07T01:43:46.087Z,101280.81
2023-01-07T01:46:29.081Z,101276.50
2023-01-07T01:49:22.047Z,101285.19
2023-01-07T01:51:56.037Z,101280.03
2023-01-07T01:54:23.604Z,101287.34
2023-01-07T01:56:51.941Z,101281.25
2023-01-07T01:59:22.428Z,101283.91
2023-01-07T02:01:49.930Z,101279.41
2023-01-07T02:04:20.217Z,101280.16
2023-01-07T02:07:10.682Z,101269.59
2023-01-07T02:09:37.912Z,101271.25
2023-01-07T02:12:19.362Z,101271.19
2023-01-07T02:15:13.397Z,101273.06
2023-01-07T02:17:49.461Z,101268.84
2023-01-07T02:20:47.344Z,101258.47
2023-01-07T02:23:45.215Z,101257.63
2023-01-07T02:26:47.392Z,101253.31
2023-01-07T02:29:26.438Z,101255.28
2023-01-07T02:32:31.061Z,101253.59
2023-01-07T02:35:10.964Z,101257.06
2023-01-07T02:38:02.414Z,101247.41
2023-01-07T02:40:53.357Z,101250.88
2023-01-07T02:43:28.503Z,101247.31
2023-01-07T02:46:22.021Z,101248.19
2023-01-07T02:48:49.385Z,101249.09
2023-01-07T02:51:16.621Z,101246.47
2023-01-07T02:53:45.752Z,101236.97
2023-01-07T02:56:25.220Z,101236.94
2023-01-07T02:59:04.545Z,101246.47
2023-01-07T03:01:52.083Z,101245.53
2023-01-07T03:04:28.046Z,101245.47
2023-01-07T03:07:05.713Z,101252.38
2023-01-07T03:10:00.323Z,101238.34
2023-01-07T03:12:46.464Z,101242.69
2023-01-07T03:15:23.902Z,101234.78
2023-01-07T03:18:07.358Z,101237.41
2023-01-07T03:20:35.809Z,101244.50
2023-01-07T03:23:06.679Z,101246.16
2023-01-07T03:25:37.578Z,101247.81
2023-01-07T03:28:07.318Z,101247.72
2023-01-07T03:30:35.466Z,101245.94
2023-01-07T03:33:08.241Z,101247.69
2023-01-07T03:35:35.653Z,101245.84
2023-01-07T03:38:04.034Z,101251.88
2023-01-07T03:40:31.575Z,101242.25
2023-01-07T03:43:00.127Z,101230.00
2023-01-07T03:45:28.611Z,101227.44
2023-01-07T03:47:57.146Z,101225.72
2023-01-07T03:50:24.511Z,101219.78
2023-01-07T03:52:51.815Z,101217.28
2023-01-07T03:55:19.031Z,101212.03
2023-01-07T03:57:46.421Z,101214.63
2023-01-07T04:00:15.244Z,101213.69
2023-01-07T04:02:43.226Z,101204.97
2023-01-07T04:05:11.308Z,101194.44
2023-01-07T04:07:38.795Z,101214.50
2023-01-07T04:10:07.181Z,101211.88
2023-01-07T04:12:34.372Z,101207.41
2023-01-07T04:15:02.035Z,101202.09
2023-01-07T04:17:29.237Z,101202.00
2023-01-07T04:19:56.460Z,101199.25
2023-01-07T04:22:23.645Z,101195.78
2023-01-07T04:24:50.786Z,101180.94
2023-01-07T04:27:18.026Z,101183.47
2023-01-07T04:29:45.213Z,101193.09
2023-01-07T04:32:12.373Z,101189.53
2023-01-07T04:34:39.521Z,101190.47
2023-01-07T04:37:06.748Z,101182.50
2023-01-07T04:39:33.916Z,101186.00
2023-01-07T04:42:01.086Z,101183.34
2023-01-07T04:44:28.244Z,101178.84
2023-01-07T04:46:55.447Z,101174.50
2023-01-07T04:49:22.635Z,101172.78
2023-01-07T04:51:49.790Z,101175.31
2023-01-07T04:54:16.968Z,101170.94
2023-01-07T04:56:44.118Z,101173.56
2023-01-07T04:59:11.279Z,101175.31
2023-01-07T05:01:38.577Z,101181.44
2023-01-07T05:04:05.879Z,101176.19
2023-01-07T05:06:33.071Z,101172.69
2023-01-07T05:09:00.236Z,101173.56
2023-01-07T05:11:27.435Z,101158.59
2023-01-07T05:13:54.607Z,101161.22
2023-01-07T05:16:21.808Z,101157.81
2023-01-07T05:18:49.014Z,101165.53
2023-01-07T05:21:16.224Z,101157.00
2023-01-07T05:23:43.500Z,101155.22
2023-01-07T05:26:10.691Z,101150.00
2023-01-07T05:28:37.824Z,101154.25
2023-01-07T05:31:05.071Z,101153.44
2023-01-07T05:33:32.270Z,101162.31
2023-01-07T05:35:59.477Z,101155.25
2023-01-07T05:38:26.645Z,101155.97
2023-01-07T05:40:53.861Z,101157.72
2023-01-07T05:43:21.563Z,101157.63
2023-01-07T05:45:48.779Z,101152.19
2023-01-07T05:48:16.200Z,101152.13
2023-01-07T05:50:43.598Z,101158.25
2023-01-07T05:53:10.761Z,101159.06
2023-01-07T05:55:41.262Z,101161.63
2023-01-07T05:58:08.437Z,101156.41
2023-01-07T06:00:36.631Z,101161.75
2023-01-07T06:03:04.512Z,101164.31
2023-01-07T06:05:32.092Z,101157.25
2023-01-07T06:07:59.245Z,101158.00
2023-01-07T06:10:26.451Z,101164.38
2023-01-07T06:12:53.609Z,101171.28
2023-01-07T06:15:20.794Z,101161.63
2023-01-07T06:17:47.963Z,101162.38
2023-01-07T06:20:15.237Z,101164.94
2023-01-07T06:22:43.245Z,101159.75
2023-01-07T06:25:11.907Z,101163.25
2023-01-07T06:27:40.725Z,101169.25
2023-01-07T06:30:09.407Z,101163.13
2023-01-07T06:32:40.532Z,101163.09
2023-01-07T06:35:09.146Z,101168.28
2023-01-07T06:37:36.309Z,101151.66
2023-01-07T06:40:03.816Z,101153.56
2023-01-07T06:42:30.978Z,101140.56
2023-01-07T06:44:58.178Z,101157.94
2023-01-07T06:47:25.769Z,101155.31
2023-01-07T06:49:53.521Z,101165.75
2023-01-07T06:52:20.961Z,101163.94
2023-01-07T06:54:48.686Z,101167.59
2023-01-07T06:57:15.971Z,101178.00
2023-01-07T06:59:43.142Z,101171.16
2023-01-07T07:02:21.785Z,101174.81
2023-01-07T07:04:49.138Z,101173.09
2023-01-07T07:07:17.121Z,101169.41
2023-01-07T07:09:44.338Z,101160.66
2023-01-07T07:12:12.103Z,101164.09
2023-01-07T07:14:39.710Z,101164.00
2023-01-07T07:17:06.999Z,101176.41
2023-01-07T07:19:34.188Z,101167.69
2023-01-07T07:22:03.905Z,101178.16
2023-01-07T07:24:31.938Z,101174.66
2023-01-07T07:27:00.189Z,101176.41
2023-01-07T07:29:27.439Z,101176.41
2023-01-07T07:31:54.601Z,101184.13
2023-01-07T07:34:21.784Z,101184.84
2023-01-07T07:36:48.970Z,101181.31
2023-01-07T07:39:16.226Z,101182.13
2023-01-07T07:41:43.435Z,101185.56
2023-01-07T07:44:10.698Z,101185.50
2023-01-07T07:46:38.108Z,101185.44
2023-01-07T07:49:06.388Z,101181.00
2023-01-07T07:51:33.875Z,101183.78
2023-01-07T07:54:01.020Z,101180.31
2023-01-07T07:56:28.192Z,101189.31
2023-01-07T07:58:55.364Z,101181.38
2023-01-07T08:01:22.735Z,101187.25
2023-01-07T08:03:50.003Z,101178.41
2023-01-07T08:06:17.206Z,101175.84
2023-01-07T08:08:44.371Z,101180.19
2023-01-07T08:11:11.641Z,101175.63
2023-01-07T08:13:38.863Z,101172.38
2023-01-07T08:16:06.222Z,101176.88
2023-01-07T08:18:33.414Z,101178.69
2023-01-07T08:21:00.625Z,101171.75
2023-01-07T08:23:28.513Z,101165.47
2023-01-07T08:26:00.512Z,101173.34
2023-01-07T08:28:27.705Z,101173.22
2023-01-07T08:30:54.902Z,101169.63
2023-01-07T08:33:22.101Z,101168.88
2023-01-07T08:35:49.258Z,101177.44
2023-01-07T08:38:16.470Z,101174.75
2023-01-07T08:40:44.360Z,101179.09
2023-01-07T08:43:12.237Z,101172.88
2023-01-07T08:45:39.466Z,101169.56
2023-01-07T08:48:06.926Z,101167.75
2023-01-07T08:50:34.782Z,101161.66
2023-01-07T08:53:01.964Z,101178.19
2023-01-07T08:55:29.144Z,101164.28
2023-01-07T08:57:57.019Z,101170.38
2023-01-07T09:00:24.609Z,101167.56
2023-01-07T09:02:51.970Z,101171.78
2023-01-07T09:05:19.354Z,101169.94
2023-01-07T09:07:46.563Z,101167.25
2023-01-07T09:10:13.719Z,101171.53
2023-01-07T09:12:40.987Z,101159.16
2023-01-07T09:15:08.846Z,101156.34
2023-01-07T09:17:36.035Z,101158.78
2023-01-07T09:20:03.765Z,101158.88
2023-01-07T09:22:35.166Z,101156.94
2023-01-07T09:25:02.322Z,101154.09
2023-01-07T09:27:29.505Z,101153.88
2023-01-07T09:29:58.673Z,101152.31
2023-01-07T09:32:26.663Z,101158.22
2023-01-07T09:34:54.058Z,101160.72
2023-01-07T09:37:21.591Z,101153.69
2023-01-07T09:39:49.000Z,101155.47
2023-01-07T09:42:39.603Z,101156.09
2023-01-07T09:45:17.273Z,101147.50
2023-01-07T09:47:47.304Z,101147.56
2023-01-07T09:50:27.652Z,101145.94
2023-01-07T09:52:56.675Z,101147.69
2023-01-07T09:55:36.127Z,101144.16
2023-01-07T09:58:03.422Z,101146.78
2023-01-07T10:00:32.514Z,101145.03
2023-01-07T10:03:10.408Z,101145.78
2023-01-07T10:06:00.556Z,101150.19
2023-01-07T10:08:46.930Z,101153.53
2023-01-07T10:11:39.705Z,101138.34
2023-01-07T10:14:22.301Z,101129.66
2023-01-07T10:17:00.014Z,101124.31
2023-01-07T10:19:48.016Z,101119.78
2023-01-07T10:22:29.135Z,101118.94
2023-01-07T10:25:04.415Z,101115.50
2023-01-07T10:27:37.820Z,101110.97
2023-01-07T10:30:07.213Z,101105.88
2023-01-07T10:32:36.809Z,101105.88
2023-01-07T10:35:04.618Z,101100.38
2023-01-07T10:37:42.413Z,101103.78
2023-01-07T10:40:33.811Z,101094.19
2023-01-07T10:43:38.182Z,101101.06
2023-01-07T10:46:44.332Z,101097.50
2023-01-07T10:49:24.333Z,101096.66
2023-01-07T10:52:08.900Z,101089.41
2023-01-07T10:55:19.528Z,101091.53
2023-01-07T10:57:48.479Z,101086.78
2023-01-07T11:00:17.803Z,101078.16
2023-01-07T11:02:47.012Z,101076.53
2023-01-07T11:05:15.010Z,101064.38
2023-01-07T11:07:54.398Z,101065.69
2023-01-07T11:10:25.362Z,101067.38
2023-01-07T11:13:03.456Z,101059.56
2023-01-07T11:15:43.039Z,101061.16
2023-01-07T11:18:21.456Z,101051.84
2023-01-07T11:20:54.077Z,101054.44
2023-01-07T11:23:31.830Z,101057.53
2023-01-07T11:26:18.561Z,101049.03
2023-01-07T11:28:56.658Z,101048.03
2023-01-07T11:31:43.631Z,101042.75
2023-01-07T11:34:59.503Z,101037.81
2023-01-07T11:37:35.606Z,101036.75
2023-01-07T11:40:17.050Z,101034.97
2023-01-07T11:42:55.177Z,101040.69
2023-01-07T11:45:28.381Z,101029.25
2023-01-07T11:47:59.740Z,101031.94
2023-01-07T11:50:33.148Z,101032.84
2023-01-07T11:53:19.944Z,101028.63
2023-01-07T11:56:06.353Z,101019.66
2023-01-07T11:59:14.317Z,101011.22
2023-01-07T12:01:45.748Z,101008.94
2023-01-07T12:04:24.968Z,101011.41
2023-01-07T12:06:52.705Z,101004.91
2023-01-07T12:09:25.772Z,101006.06
2023-01-07T12:11:55.034Z,101002.72
2023-01-07T12:14:28.111Z,100999.06
2023-01-07T12:16:57.728Z,101000.59
2023-01-07T12:19:32.038Z,100999.56
2023-01-07T12:22:16.026Z,100990.22
2023-01-07T12:25:10.778Z,101001.63
2023-01-07T12:28:03.892Z,100993.63
2023-01-07T12:30:58.350Z,100985.28
2023-01-07T12:33:37.616Z,100980.25
2023-01-07T12:36:07.993Z,100984.31
2023-01-07T12:38:40.776Z,100975.56
2023-01-07T12:41:20.814Z,100967.69
2023-01-07T12:44:00.900Z,100970.44
2023-01-07T12:46:38.543Z,100965.25
2023-01-07T12:49:13.635Z,100965.25
2023-01-07T12:51:55.227Z,100970.53
2023-01-07T12:54:34.490Z,100958.09
2023-01-07T12:57:21.886Z,100951.66
2023-01-07T13:00:00.874Z,100962.88
2023-01-07T13:02:54.393Z,100954.81
2023-01-07T13:05:32.386Z,100955.78
2023-01-07T13:08:15.443Z,100947.09
2023-01-07T13:10:56.972Z,100940.69
2023-01-07T13:13:41.553Z,100931.50
2023-01-07T13:16:11.147Z,100933.47
2023-01-07T13:18:38.384Z,100932.72
2023-01-07T13:21:15.013Z,100932.78
2023-01-07T13:24:19.022Z,100927.34
2023-01-07T13:27:04.559Z,100925.97
2023-01-07T13:29:44.511Z,100924.50
2023-01-07T13:32:45.808Z,100920.84
2023-01-07T13:35:32.703Z,100922.53
2023-01-07T13:38:26.608Z,100917.25
2023-01-07T13:41:14.254Z,100919.81
2023-01-07T13:43:53.010Z,100910.88
2023-01-07T13:46:22.984Z,100911.91
2023-01-07T13:48:51.907Z,100904.09
2023-01-07T13:51:36.630Z,100906.22
2023-01-07T13:54:03.874Z,100904.69
2023-01-07T13:56:35.830Z,100898.00
2023-01-07T13:59:03.268Z,100897.38
2023-01-07T14:01:34.580Z,100893.75
2023-01-07T14:04:06.256Z,100889.56
2023-01-07T14:06:42.125Z,100882.88
2023-01-07T14:09:13.452Z,100885.00
2023-01-07T14:11:52.328Z,100883.16
2023-01-07T14:14:32.914Z,100885.88
2023-01-07T14:17:19.560Z,100888.50
2023-01-07T14:20:19.009Z,100884.25
2023-01-07T14:22:51.891Z,100886.28
2023-01-07T14:25:28.525Z,100872.31
2023-01-07T14:28:07.472Z,100879.34
2023-01-07T14:30:48.585Z,100870.69
2023-01-07T14:33:37.235Z,100877.72
2023-01-07T14:36:11.772Z,100870.59
2023-01-07T14:38:39.543Z,100867.31
2023-01-07T14:41:15.921Z,100865.63
2023-01-07T14:43:43.382Z,100873.69
2023-01-07T14:46:28.648Z,100863.25
2023-01-07T14:49:01.876Z,100867.03
2023-01-07T14:52:06.606Z,100868.06
2023-01-07T14:54:55.541Z,100861.88
2023-01-07T14:57:26.807Z,100869.09
2023-01-07T15:00:27.777Z,100867.38
2023-01-07T15:03:16.193Z,100867.41
2023-01-07T15:06:01.536Z,100868.31
2023-01-07T15:08:53.953Z,100864.94
2023-01-07T15:11:42.927Z,100859.75
2023-01-07T15:14:41.128Z,100858.75
2023-01-07T15:17:10.899Z,100862.22
2023-01-07T15:19:39.273Z,100864.84
2023-01-07T15:22:33.233Z,100864.09
2023-01-07T15:25:22.756Z,100871.81
2023-01-07T15:27:58.710Z,100866.63
2023-01-07T15:31:00.108Z,100857.78
2023-01-07T15:33:47.278Z,100860.13
2023-01-07T15:36:15.738Z,100859.28
2023-01-07T15:38:48.910Z,100869.50
2023-01-07T15:41:23.718Z,100859.91
2023-01-07T15:43:50.986Z,100861.63
2023-01-07T15:46:18.536Z,100855.56
2023-01-07T15:48:45.901Z,100869.75
2023-01-07T15:51:17.984Z,100865.47
2023-01-07T15:53:53.576Z,100869.59
2023-01-07T15:56:22.307Z,100866.06
2023-01-07T15:58:49.622Z,100858.19
2023-01-07T16:01:21.944Z,100860.81
2023-01-07T16:03:51.679Z,100860.69
2023-01-07T16:06:39.140Z,100860.69
2023-01-07T16:09:18.827Z,100855.56
2023-01-07T16:11:46.191Z,100851.03
2023-01-07T16:14:20.167Z,100849.25
2023-01-07T16:16:47.313Z,100840.28
2023-01-07T16:19:20.144Z,100838.84
2023-01-07T16:21:59.205Z,100831.78
2023-01-07T16:24:26.699Z,100833.31
2023-01-07T16:26:56.940Z,100834.03
2023-01-07T16:29:28.889Z,100828.78
2023-01-07T16:31:57.071Z,100831.63
2023-01-07T16:34:24.153Z,100829.75
2023-01-07T16:36:58.655Z,100831.41
2023-01-07T16:39:40.476Z,100826.44
2023-01-07T16:42:20.103Z,100821.09
2023-01-07T16:44:49.441Z,100820.16
2023-01-07T16:47:22.457Z,100821.88
2023-01-07T16:49:50.651Z,100813.81
2023-01-07T16:52:19.290Z,100808.38
2023-01-07T16:54:47.649Z,100803.34
2023-01-07T16:57:15.063Z,100805.88
2023-01-07T16:59:54.064Z,100793.94
2023-01-07T17:02:52.111Z,100795.59
2023-01-07T17:05:27.529Z,100796.50
2023-01-07T17:08:06.017Z,100782.44
2023-01-07T17:10:35.450Z,100776.41
2023-01-07T17:13:11.120Z,100778.84
2023-01-07T17:15:39.450Z,100776.22
2023-01-07T17:18:15.413Z,100768.13
2023-01-07T17:20:43.786Z,100766.66
2023-01-07T17:23:32.495Z,100762.59
2023-01-07T17:26:17.065Z,100765.16
2023-01-07T17:28:47.349Z,100760.72
2023-01-07T17:31:14.802Z,100762.59
2023-01-07T17:33:42.466Z,100765.66
2023-01-07T17:36:26.275Z,100765.75
2023-01-07T17:38:53.766Z,100763.88
2023-01-07T17:41:41.589Z,100761.19
2023-01-07T17:44:14.472Z,100761.28
2023-01-07T17:46:42.083Z,100755.31
2023-01-07T17:49:12.645Z,100747.53
2023-01-07T17:51:42.382Z,100750.81
2023-01-07T17:54:23.657Z,100746.22
2023-01-07T17:56:51.356Z,100749.75
2023-01-07T17:59:23.107Z,100747.94
2023-01-07T18:01:52.519Z,100747.22
2023-01-07T18:04:21.387Z,100737.78
2023-01-07T18:06:48.588Z,100743.25
2023-01-07T18:09:15.812Z,100732.16
2023-01-07T18:12:03.878Z,100738.25
2023-01-07T18:14:32.505Z,100735.34
2023-01-07T18:16:59.841Z,100731.94
2023-01-07T18:19:27.104Z,100728.47
2023-01-07T18:21:54.386Z,100718.03
2023-01-07T18:24:22.277Z,100721.59
2023-01-07T18:26:50.040Z,100717.81
2023-01-07T18:29:17.631Z,100712.78
2023-01-07T18:31:46.032Z,100706.47
2023-01-07T18:34:14.737Z,100707.13
2023-01-07T18:36:42.673Z,100698.25
2023-01-07T18:39:17.451Z,100694.25
2023-01-07T18:41:46.368Z,100695.81
2023-01-07T18:44:13.646Z,100706.34
2023-01-07T18:46:40.932Z,100710.66
2023-01-07T18:49:09.713Z,100700.22
2023-01-07T18:51:36.859Z,100680.00
2023-01-07T18:54:04.313Z,100680.72
2023-01-07T18:56:31.513Z,100676.81
2023-01-07T18:58:58.850Z,100674.06
2023-01-07T19:01:26.944Z,100675.22
2023-01-07T19:03:54.400Z,100677.81
2023-01-07T19:06:21.903Z,100676.69
2023-01-07T19:08:49.090Z,100662.69
2023-01-07T19:11:16.485Z,100660.41
2023-01-07T19:13:45.015Z,100658.50
2023-01-07T19:16:13.452Z,100657.56
2023-01-07T19:18:40.967Z,100654.84
2023-01-07T19:21:10.724Z,100646.00
2023-01-07T19:23:38.131Z,100652.00
2023-01-07T19:26:09.977Z,100645.25
2023-01-07T19:28:37.824Z,100643.50
2023-01-07T19:31:07.001Z,100643.78
2023-01-07T19:33:35.181Z,100641.22
2023-01-07T19:36:09.018Z,100638.78
2023-01-07T19:38:39.611Z,100642.25
2023-01-07T19:41:12.508Z,100635.44
2023-01-07T19:43:39.707Z,100625.75
2023-01-07T19:46:08.114Z,100631.91
2023-01-07T19:48:35.620Z,100625.84
2023-01-07T19:51:04.239Z,100630.13
2023-01-07T19:53:32.269Z,100630.47
2023-01-07T19:56:05.462Z,100623.41
2023-01-07T19:58:33.149Z,100628.50
2023-01-07T20:01:05.263Z,100620.56
2023-01-07T20:03:33.827Z,100623.47
2023-01-07T20:06:09.547Z,100615.72
2023-01-07T20:08:37.918Z,100620.88
2023-01-07T20:11:05.643Z,100613.06
2023-01-07T20:13:33.950Z,100606.03
2023-01-07T20:16:12.042Z,100612.97
2023-01-07T20:18:41.384Z,100607.91
2023-01-07T20:21:09.040Z,100609.44
2023-01-07T20:23:37.211Z,100601.81
2023-01-07T20:26:08.399Z,100597.47
2023-01-07T20:28:35.757Z,100587.75
2023-01-07T20:31:07.824Z,100591.22
2023-01-07T20:33:35.959Z,100596.13
2023-01-07T20:36:08.577Z,100589.34
2023-01-07T20:38:36.274Z,100580.78
2023-01-07T20:41:04.767Z,100587.94
2023-01-07T20:43:36.498Z,100576.50
2023-01-07T20:46:06.494Z,100564.94
2023-01-07T20:48:33.736Z,100558.03
2023-01-07T20:51:06.387Z,100557.81
2023-01-07T20:53:33.965Z,100557.81
2023-01-07T20:56:02.128Z,100556.22
2023-01-07T20:58:33.826Z,100559.63
2023-01-07T21:01:10.318Z,100565.59
2023-01-07T21:03:38.736Z,100556.03
2023-01-07T21:06:09.462Z,100559.53
2023-01-07T21:08:37.559Z,100547.41
2023-01-07T21:11:15.520Z,100552.66
2023-01-07T21:13:50.466Z,100542.13
2023-01-07T21:16:18.445Z,100536.06
2023-01-07T21:18:45.657Z,100536.13
2023-01-07T21:21:15.657Z,100541.38
2023-01-07T21:23:42.936Z,100532.59
2023-01-07T21:26:12.832Z,100532.72
2023-01-07T21:28:40.271Z,100533.63
2023-01-07T21:31:11.618Z,100518.91
2023-01-07T21:33:42.637Z,100515.31
2023-01-07T21:36:15.557Z,100511.78
2023-01-07T21:38:43.239Z,100510.06
2023-01-07T21:41:16.705Z,100507.72
2023-01-07T21:43:44.328Z,100503.25
2023-01-07T21:46:12.917Z,100500.75
2023-01-07T21:48:42.064Z,100501.47
2023-01-07T21:51:16.496Z,100498.06
2023-01-07T21:53:44.440Z,100499.00
2023-01-07T21:56:17.139Z,100500.63
2023-01-07T21:58:45.940Z,100509.94
2023-01-07T22:01:14.143Z,100510.84
2023-01-07T22:03:45.988Z,100502.19
2023-01-07T22:06:19.874Z,100503.25
2023-01-07T22:08:47.524Z,100498.72
2023-01-07T22:11:17.316Z,100489.94
2023-01-07T22:13:44.490Z,100484.00
2023-01-07T22:16:11.753Z,100481.31
2023-01-07T22:18:39.014Z,100471.84
2023-01-07T22:21:06.258Z,100477.00
2023-01-07T22:23:33.795Z,100475.47
2023-01-07T22:26:05.913Z,100463.47
2023-01-07T22:28:35.717Z,100462.06
2023-01-07T22:31:07.121Z,100451.97
2023-01-07T22:33:34.410Z,100448.00
2023-01-07T22:36:01.893Z,100447.56
2023-01-07T22:38:29.248Z,100445.84
2023-01-07T22:40:56.821Z,100454.75
2023-01-07T22:43:24.550Z,100447.22
2023-01-07T22:45:56.773Z,100462.28
2023-01-07T22:48:27.149Z,100448.44
2023-01-07T22:51:01.163Z,100450.38
2023-01-07T22:53:32.210Z,100448.81
2023-01-07T22:55:59.756Z,100446.25
2023-01-07T22:58:27.018Z,100452.34
2023-01-07T23:00:54.163Z,100454.28
2023-01-07T23:03:22.999Z,100451.75
2023-01-07T23:05:51.040Z,100448.13
2023-01-07T23:08:18.658Z,100444.78
2023-01-07T23:10:46.403Z,100442.13
2023-01-07T23:13:13.554Z,100446.59
2023-01-07T23:15:41.240Z,100435.25
2023-01-07T23:18:15.797Z,100437.97
2023-01-07T23:20:44.084Z,100433.63
2023-01-07T23:23:12.198Z,100429.28
2023-01-07T23:25:49.818Z,100432.88
2023-01-07T23:28:18.661Z,100426.56
2023-01-07T23:30:45.830Z,100423.09
2023-01-07T23:33:13.013Z,100417.81
2023-01-07T23:35:40.195Z,100417.00
2023-01-07T23:38:07.347Z,100418.78
2023-01-07T23:40:34.583Z,100404.03
2023-01-07T23:43:01.826Z,100403.97
2023-01-07T23:45:29.082Z,100405.66
2023-01-07T23:47:56.312Z,100396.78
2023-01-07T23:50:23.470Z,100383.69
2023-01-07T23:52:50.646Z,100382.88
2023-01-07T23:55:17.910Z,100380.31
2023-01-07T23:57:45.080Z,100381.06
